Time,TemperatureF,DewpointF,PressureIn,WindDirection,WindDirectionDegrees,WindSpeedMPH,WindSpeedGustMPH,Humidity,HourlyPrecipIn,Conditions,Clouds,dailyrainin,SolarRadiationWatts/m^2,SoftwareType,DateUTC
2013-04-21 00:12:00,48.8,45.0,30.10,NW,318,8.0,8.0,85,0.00,,,0.00,0,weatherlink.com 1.10,2013-04-21 07:12:00,
2013-04-21 00:27:00,48.9,45.0,30.09,NW,308,4.0,8.0,85,0.00,,,0.00,0,weatherlink.com 1.10,2013-04-21 07:27:00,
2013-04-21 00:42:00,48.9,44.0,30.09,NNW,347,3.0,9.0,84,0.00,,,0.00,0,weatherlink.com 1.10,2013-04-21 07:42:00,
2013-04-21 00:57:00,48.7,44.0,30.09,NW,319,4.0,9.0,84,0.00,,,0.00,0,weatherlink.com 1.10,2013-04-21 07:57:00,
2013-04-21 01:12:00,48.3,44.0,30.09,NNW,336,3.0,9.0,85,0.00,,,0.00,0,weatherlink.com 1.10,2013-04-21 08:12:00,
2013-04-21 01:27:00,47.9,44.0,30.09,NNW,331,5.0,7.0,85,0.00,,,0.00,0,weatherlink.com 1.10,2013-04-21 08:27:00,
2013-04-21 01:42:00,47.7,44.0,30.09,NNW,333,1.0,8.0,86,0.00,,,0.00,0,weatherlink.com 1.10,2013-04-21 08:42:00,
2013-04-21 01:57:00,48.2,44.0,30.08,NNW,333,4.0,7.0,85,0.00,,,0.00,0,weatherlink.com 1.10,2013-04-21 08:57:00,
2013-04-21 02:12:00,47.7,44.0,30.08,NNW,339,3.0,9.0,86,0.00,,,0.00,0,weatherlink.com 1.10,2013-04-21 09:12:00,
2013-04-21 02:27:00,47.7,44.0,30.07,NE,35,5.0,7.0,86,0.00,,,0.00,0,weatherlink.com 1.10,2013-04-21 09:27:00,
2013-04-21 02:42:00,47.9,44.0,30.07,NE,35,0.0,3.0,86,0.00,,,0.00,0,weatherlink.com 1.10,2013-04-21 09:42:00,
2013-04-21 02:57:00,47.3,43.0,30.07,NE,35,0.0,2.0,86,0.00,,,0.00,0,weatherlink.com 1.10,2013-04-21 09:57:00,
2013-04-21 03:12:00,46.4,43.0,30.07,NE,35,1.0,3.0,87,0.00,,,0.00,0,weatherlink.com 1.10,2013-04-21 10:12:00,
2013-04-21 03:27:00,46.1,43.0,30.07,NE,34,0.0,2.0,88,0.00,,,0.00,0,weatherlink.com 1.10,2013-04-21 10:27:00,
2013-04-21 03:42:00,45.7,43.0,30.07,NE,35,3.0,3.0,89,0.00,,,0.00,0,weatherlink.com 1.10,2013-04-21 10:42:00,
2013-04-21 03:57:00,46.0,43.0,30.06,NE,34,1.0,3.0,90,0.00,,,0.00,0,weatherlink.com 1.10,2013-04-21 10:57:00,
2013-04-21 04:12:00,46.3,44.0,30.06,NE,35,1.0,3.0,90,0.00,,,0.00,0,weatherlink.com 1.10,2013-04-21 11:12:00,
2013-04-21 04:27:00,46.0,43.0,30.06,NE,35,1.0,4.0,90,0.00,,,0.00,0,weatherlink.com 1.10,2013-04-21 11:27:00,
2013-04-21 04:42:00,45.7,43.0,30.06,NE,34,0.0,3.0,90,0.00,,,0.00,0,weatherlink.com 1.10,2013-04-21 11:42:00,
2013-04-21 04:57:00,45.9,43.0,30.06,North,355,2.0,6.0,90,0.00,,,0.00,0,weatherlink.com 1.10,2013-04-21 11:57:00,
2013-04-21 05:12:00,46.2,43.0,30.07,North,355,0.0,3.0,89,0.00,,,0.00,0,weatherlink.com 1.10,2013-04-21 12:12:00,
2013-04-21 05:27:00,45.7,43.0,30.07,North,355,0.0,3.0,90,0.00,,,0.00,0,weatherlink.com 1.10,2013-04-21 12:27:00,
2013-04-21 05:42:00,45.3,43.0,30.06,North,355,0.0,2.0,90,0.00,,,0.00,0,weatherlink.com 1.10,2013-04-21 12:42:00,
2013-04-21 05:57:00,44.9,42.0,30.06,North,355,0.0,2.0,90,0.00,,,0.00,0,weatherlink.com 1.10,2013-04-21 12:57:00,
2013-04-21 06:12:00,45.5,43.0,30.06,North,355,1.0,3.0,90,0.00,,,0.00,0,weatherlink.com 1.10,2013-04-21 13:12:00,
2013-04-21 06:27:00,45.5,43.0,30.07,North,355,2.0,3.0,91,0.00,,,0.00,5,weatherlink.com 1.10,2013-04-21 13:27:00,
2013-04-21 06:42:00,46.0,44.0,30.07,North,355,0.0,3.0,91,0.00,,,0.00,16,weatherlink.com 1.10,2013-04-21 13:42:00,
2013-04-21 06:57:00,46.1,44.0,30.07,North,355,0.0,1.0,91,0.00,,,0.00,25,weatherlink.com 1.10,2013-04-21 13:57:00,
2013-04-21 07:12:00,46.4,44.0,30.07,North,355,0.0,1.0,91,0.00,,,0.00,88,weatherlink.com 1.10,2013-04-21 14:12:00,
2013-04-21 07:27:00,48.1,46.0,30.08,North,355,0.0,2.0,91,0.00,,,0.00,141,weatherlink.com 1.10,2013-04-21 14:27:00,
2013-04-21 07:43:00,50.4,48.0,30.08,North,355,0.0,3.0,90,0.00,,,0.00,193,weatherlink.com 1.10,2013-04-21 14:43:00,
2013-04-21 07:58:00,53.6,50.0,30.09,NW,326,0.0,5.0,87,0.00,,,0.00,250,weatherlink.com 1.10,2013-04-21 14:58:00,
2013-04-21 08:13:00,56.4,50.0,30.09,NW,326,0.0,2.0,79,0.00,,,0.00,308,weatherlink.com 1.10,2013-04-21 15:13:00,
2013-04-21 08:28:00,57.9,51.0,30.09,NW,326,1.0,3.0,77,0.00,,,0.00,360,weatherlink.com 1.10,2013-04-21 15:28:00,
2013-04-21 08:43:00,59.8,50.0,30.09,NW,321,0.0,4.0,71,0.00,,,0.00,415,weatherlink.com 1.10,2013-04-21 15:43:00,
2013-04-21 08:58:00,60.8,51.0,30.09,NW,319,4.0,5.0,70,0.00,,,0.00,466,weatherlink.com 1.10,2013-04-21 15:58:00,
2013-04-21 09:13:00,62.1,51.0,30.09,NW,319,1.0,4.0,66,0.00,,,0.00,513,weatherlink.com 1.10,2013-04-21 16:13:00,
2013-04-21 09:28:00,60.7,50.0,30.09,WNW,295,3.0,7.0,67,0.00,,,0.00,564,weatherlink.com 1.10,2013-04-21 16:28:00,
2013-04-21 09:43:00,63.2,51.0,30.09,WNW,292,3.0,7.0,64,0.00,,,0.00,608,weatherlink.com 1.10,2013-04-21 16:43:00,
2013-04-21 09:58:00,63.2,50.0,30.09,NW,304,5.0,7.0,62,0.00,,,0.00,652,weatherlink.com 1.10,2013-04-21 16:58:00,
2013-04-21 10:13:00,61.7,49.0,30.09,WNW,297,4.0,7.0,64,0.00,,,0.00,693,weatherlink.com 1.10,2013-04-21 17:13:00,
2013-04-21 10:28:00,63.8,51.0,30.09,WNW,293,2.0,7.0,64,0.00,,,0.00,729,weatherlink.com 1.10,2013-04-21 17:28:00,
2013-04-21 10:43:00,61.1,50.0,30.10,NW,324,4.0,10.0,66,0.00,,,0.00,765,weatherlink.com 1.10,2013-04-21 17:43:00,
2013-04-21 10:58:00,58.4,49.0,30.10,NNW,336,5.0,12.0,72,0.00,,,0.00,798,weatherlink.com 1.10,2013-04-21 17:58:00,
2013-04-21 11:14:00,61.5,51.0,30.11,WNW,289,1.0,7.0,69,0.00,,,0.00,826,weatherlink.com 1.10,2013-04-21 18:14:00,
2013-04-21 11:29:00,64.7,52.0,30.10,West,280,4.0,8.0,63,0.00,,,0.00,851,weatherlink.com 1.10,2013-04-21 18:29:00,
2013-04-21 11:44:00,66.3,51.0,30.11,West,279,2.0,6.0,59,0.00,,,0.00,870,weatherlink.com 1.10,2013-04-21 18:44:00,
2013-04-21 11:59:00,67.8,52.0,30.11,West,276,4.0,6.0,57,0.00,,,0.00,889,weatherlink.com 1.10,2013-04-21 18:59:00,
2013-04-21 12:14:00,68.7,52.0,30.10,West,269,7.0,7.0,56,0.00,,,0.00,907,weatherlink.com 1.10,2013-04-21 19:14:00,
2013-04-21 12:29:00,67.9,51.0,30.10,WNW,287,5.0,7.0,56,0.00,,,0.00,914,weatherlink.com 1.10,2013-04-21 19:29:00,
2013-04-21 12:44:00,67.0,51.0,30.09,WNW,302,5.0,8.0,57,0.00,,,0.00,923,weatherlink.com 1.10,2013-04-21 19:44:00,
2013-04-21 12:59:00,64.3,50.0,30.09,WNW,297,6.0,9.0,61,0.00,,,0.00,926,weatherlink.com 1.10,2013-04-21 19:59:00,
2013-04-21 13:14:00,62.9,50.0,30.08,NW,323,5.0,9.0,64,0.00,,,0.00,921,weatherlink.com 1.10,2013-04-21 20:14:00,
2013-04-21 13:29:00,60.8,51.0,30.08,WNW,298,8.0,10.0,69,0.00,,,0.00,919,weatherlink.com 1.10,2013-04-21 20:29:00,
2013-04-21 13:44:00,61.6,51.0,30.08,NW,316,4.0,9.0,68,0.00,,,0.00,914,weatherlink.com 1.10,2013-04-21 20:44:00,
2013-04-21 13:59:00,62.4,52.0,30.07,NW,313,4.0,10.0,68,0.00,,,0.00,902,weatherlink.com 1.10,2013-04-21 20:59:00,
2013-04-21 14:14:00,62.8,52.0,30.07,NW,317,7.0,10.0,67,0.00,,,0.00,888,weatherlink.com 1.10,2013-04-21 21:14:00,
2013-04-21 14:29:00,63.7,52.0,30.07,WNW,296,6.0,9.0,65,0.00,,,0.00,867,weatherlink.com 1.10,2013-04-21 21:29:00,
2013-04-21 14:44:00,63.2,51.0,30.07,WNW,291,7.0,10.0,65,0.00,,,0.00,844,weatherlink.com 1.10,2013-04-21 21:44:00,
2013-04-21 14:59:00,63.8,52.0,30.06,WNW,289,8.0,10.0,66,0.00,,,0.00,819,weatherlink.com 1.10,2013-04-21 21:59:00,
2013-04-21 15:14:00,65.3,52.0,30.05,WNW,296,10.0,10.0,62,0.00,,,0.00,789,weatherlink.com 1.10,2013-04-21 22:14:00,
2013-04-21 15:29:00,62.5,50.0,30.06,NW,311,11.0,11.0,65,0.00,,,0.00,754,weatherlink.com 1.10,2013-04-21 22:29:00,
2013-04-21 15:44:00,62.5,50.0,30.05,NW,310,9.0,11.0,65,0.00,,,0.00,717,weatherlink.com 1.10,2013-04-21 22:44:00,
2013-04-21 15:59:00,61.4,50.0,30.05,NW,321,7.0,13.0,66,0.00,,,0.00,679,weatherlink.com 1.10,2013-04-21 22:59:00,
2013-04-21 16:14:00,61.7,50.0,30.04,WNW,292,10.0,10.0,65,0.00,,,0.00,640,weatherlink.com 1.10,2013-04-21 23:14:00,
2013-04-21 16:29:00,62.9,50.0,30.03,NW,315,10.0,12.0,64,0.00,,,0.00,594,weatherlink.com 1.10,2013-04-21 23:29:00,
2013-04-21 16:44:00,64.3,50.0,30.03,NW,305,3.0,10.0,61,0.00,,,0.00,548,weatherlink.com 1.10,2013-04-21 23:44:00,
2013-04-21 16:59:00,64.9,50.0,30.02,NW,315,8.0,9.0,59,0.00,,,0.00,501,weatherlink.com 1.10,2013-04-21 23:59:00,
2013-04-21 17:14:00,64.6,50.0,30.02,NW,312,5.0,10.0,60,0.00,,,0.00,454,weatherlink.com 1.10,2013-04-22 00:14:00,
2013-04-21 17:29:00,64.6,50.0,30.02,NW,305,3.0,10.0,59,0.00,,,0.00,403,weatherlink.com 1.10,2013-04-22 00:29:00,
2013-04-21 17:44:00,63.8,49.0,30.02,NW,306,7.0,10.0,60,0.00,,,0.00,357,weatherlink.com 1.10,2013-04-22 00:44:00,
2013-04-21 17:59:00,63.0,49.0,30.01,North,5,3.0,11.0,60,0.00,,,0.00,309,weatherlink.com 1.10,2013-04-22 00:59:00,
2013-04-21 18:14:00,62.3,49.0,30.01,North,5,1.0,9.0,63,0.00,,,0.00,253,weatherlink.com 1.10,2013-04-22 01:14:00,
2013-04-21 18:29:00,61.9,48.0,30.01,WNW,303,5.0,9.0,61,0.00,,,0.00,199,weatherlink.com 1.10,2013-04-22 01:29:00,
2013-04-21 18:44:00,61.4,48.0,30.01,NNW,327,6.0,8.0,62,0.00,,,0.00,153,weatherlink.com 1.10,2013-04-22 01:44:00,
2013-04-21 18:59:00,61.6,48.0,30.00,North,360,3.0,9.0,61,0.00,,,0.00,107,weatherlink.com 1.10,2013-04-22 01:59:00,
2013-04-21 19:14:00,61.0,49.0,30.00,NW,309,2.0,7.0,65,0.00,,,0.00,65,weatherlink.com 1.10,2013-04-22 02:14:00,
2013-04-21 19:29:00,60.9,49.0,30.00,NW,317,3.0,5.0,64,0.00,,,0.00,33,weatherlink.com 1.10,2013-04-22 02:29:00,
2013-04-21 19:44:00,59.1,47.0,30.00,NW,321,5.0,7.0,65,0.00,,,0.00,14,weatherlink.com 1.10,2013-04-22 02:44:00,
2013-04-21 19:59:00,56.1,47.0,30.00,NNW,341,5.0,7.0,71,0.00,,,0.00,0,weatherlink.com 1.10,2013-04-22 02:59:00,
2013-04-21 20:14:00,55.1,47.0,30.00,North,350,4.0,9.0,74,0.00,,,0.00,0,weatherlink.com 1.10,2013-04-22 03:14:00,
2013-04-21 20:29:00,55.7,48.0,30.00,North,9,2.0,7.0,74,0.00,,,0.00,0,weatherlink.com 1.10,2013-04-22 03:29:00,
2013-04-21 20:44:00,55.0,48.0,30.01,North,9,0.0,2.0,76,0.00,,,0.00,0,weatherlink.com 1.10,2013-04-22 03:44:00,
2013-04-21 21:00:00,54.3,47.0,30.01,North,9,0.0,2.0,77,0.00,,,0.00,0,weatherlink.com 1.10,2013-04-22 04:00:00,
2013-04-21 21:15:00,54.0,47.0,30.02,North,9,0.0,3.0,78,0.00,,,0.00,0,weatherlink.com 1.10,2013-04-22 04:15:00,
2013-04-21 21:30:00,53.6,47.0,30.02,North,9,0.0,2.0,79,0.00,,,0.00,0,weatherlink.com 1.10,2013-04-22 04:30:00,
2013-04-21 21:45:00,53.5,48.0,30.02,North,9,0.0,3.0,80,0.00,,,0.00,0,weatherlink.com 1.10,2013-04-22 04:45:00,
2013-04-21 22:00:00,55.2,49.0,30.02,North,9,3.0,6.0,79,0.00,,,0.00,0,weatherlink.com 1.10,2013-04-22 05:00:00,
2013-04-21 22:15:00,55.3,48.0,30.03,North,9,3.0,4.0,77,0.00,,,0.00,0,weatherlink.com 1.10,2013-04-22 05:15:00,
2013-04-21 22:30:00,54.3,48.0,30.03,North,9,0.0,5.0,78,0.00,,,0.00,0,weatherlink.com 1.10,2013-04-22 05:30:00,
2013-04-21 22:45:00,53.0,47.0,30.02,North,9,0.0,3.0,79,0.00,,,0.00,0,weatherlink.com 1.10,2013-04-22 05:45:00,
2013-04-21 23:00:00,52.6,47.0,30.02,North,9,0.0,3.0,80,0.00,,,0.00,0,weatherlink.com 1.10,2013-04-22 06:00:00,
2013-04-21 23:15:00,52.1,46.0,30.02,North,9,2.0,3.0,81,0.00,,,0.00,0,weatherlink.com 1.10,2013-04-22 06:15:00,
2013-04-21 23:30:00,53.2,48.0,30.02,North,9,1.0,5.0,83,0.00,,,0.00,0,weatherlink.com 1.10,2013-04-22 06:30:00,
2013-04-21 23:45:00,52.1,46.0,30.02,North,9,3.0,3.0,81,0.00,,,0.00,0,weatherlink.com 1.10,2013-04-22 06:45:00,